Pacoima Past Weather

Last 30 Days

 
High: 72ºf @1:57 PM    Low: 56ºf @6:57 AM     Approx. Precipitation / Rain Total: in.
Time (PST)Temp. (ºf)Humidity (%)Dew Point (ºf)Barometer (inHG)Wind Speed (mph)Wind DirectionWind Gust (mph)1hr. Precip / Rain Total (in.)Snow Depth
8:57 PM636-5.25-9.56nne12.17--
7:57 PM627-2.77-6.95nne11.3--
6:57 PM656-3.8-6.08nne10.43--
5:57 PM656-3.8-9.56n16.51--
4:57 PM676-2.35-9.56nne12.17--
3:57 PM706-0.19-8.69n15.64--
2:57 PM715-3.3-6.95nne20.86--
1:57 PM725-2.6-13.03nne25.2--
12:57 PM725-2.6-16.51nne26.94--
11:57 AM715-3.3-18.25nne32.15--
10:57 AM706-0.19-15.64nne24.33--
9:57 AM686-1.63-12.17nne19.12--
8:57 AM6582.28-1.74ssw7.82--
7:57 AM5990.28-5.21n8.69--
6:57 AM56100.23-6.08wnw8.69--
5:57 AM598-2.21-10.43nne20.86--
4:57 AM598-2.21-12.17n19.99--
3:57 AM578-3.71-6.08n9.56--
2:57 AM588-2.96-2.61n13.9--
1:57 AM598-2.21-8.69nne16.51--
12:57 AM589-0.48-9.56nne17.38--
High: 68ºf @2:57 PM    Low: 50ºf @6:57 AM     Approx. Precipitation / Rain Total: in.
Time (PST)Temp. (ºf)Humidity (%)Dew Point (ºf)Barometer (inHG)Wind Speed (mph)Wind DirectionWind Gust (mph)1hr. Precip / Rain Total (in.)Snow Depth
11:57 PM579-1.24-11.3-20.86--
10:57 PM598-2.21-13.03n23.46--
9:57 PM589-0.48-8.69n16.51--
8:57 PM598-2.21-4.34w19.99--
7:57 PM607-4.25-14.77n19.12--
6:57 PM617-3.51-12.17n18.25--
5:57 PM627-2.77-13.03nne20.86--
4:57 PM646-4.52-11.3nne23.46--
3:57 PM666-3.07-13.03ne25.2--
2:57 PM686-1.63-15.64ne27.81--
1:57 PM676-2.35-14.77nne28.68--
11:57 AM647-1.3-13.9nne34.76--
10:57 AM6280.04-19.12nne30.41--
9:57 AM6280.04-13.03ne26.07--
8:57 AM59102.53-14.77ne28.68--
7:57 AM54134.29-7.82n11.3--
6:57 AM50142.71-6.95nnw10.43--
5:57 AM53133.5-4.34w13.9--
4:57 AM54122.57-6.08nne19.12--
3:57 AM55123.35-13.03n22.59--
2:57 AM57113.04-14.77n24.33--
1:57 AM58113.81-13.9nne21.72--
12:57 AM58125.7-8.69ne13.9--
High: 68ºf @1:57 PM    Low: 48ºf @4:57 AM     Approx. Precipitation / Rain Total: in.
Time (PST)Temp. (ºf)Humidity (%)Dew Point (ºf)Barometer (inHG)Wind Speed (mph)Wind DirectionWind Gust (mph)1hr. Precip / Rain Total (in.)Snow Depth
11:57 PM57124.92-5.21nne12.17--
10:57 PM57124.92-6.08nne11.3--
9:57 PM57136.67-6.08n15.64--
8:57 PM58125.7-8.69nne29.55--
7:57 PM60115.36-14.77nne34.76--
6:57 PM60115.36-13.03nne24.33--
5:57 PM62116.91-12.17nne22.59--
4:57 PM63117.68-8.69nne28.68--
3:57 PM66107.89-15.64nne38.23--
2:57 PM681111.55-13.03nne33.02--
1:57 PM681111.55-15.64nne33.89--
12:57 PM671517.84-16.51nne29.55--
11:57 AM661618.53-16.51nne32.15--
10:57 AM651617.73-18.25nne31.28--
9:57 AM641819.65-13.03nne25.2--
8:57 AM622222.73-1.74nne9.56--
7:57 AM552721.64-1.74n12.17--
6:57 AM522719.07-6.08nne7.82--
5:57 AM512819.06-3.48n6.95--
4:57 AM483320.29-3.48e8.69--
3:57 AM503120.57-6.95ese10.43--
2:57 AM512919.88-3.48e7.82--
1:57 AM542720.79-4.34ene7.82--
12:57 AM552721.64-4.34ene13.9--
High: 73ºf @11:57 AM    Low: 54ºf @6:57 AM     Approx. Precipitation / Rain Total: in.
Time (PST)Temp. (ºf)Humidity (%)Dew Point (ºf)Barometer (inHG)Wind Speed (mph)Wind DirectionWind Gust (mph)1hr. Precip / Rain Total (in.)Snow Depth
11:57 PM562520.69-3.48ene11.3--
10:57 PM572622.46-4.34ne9.56--
9:57 PM592422.27-5.21n14.77--
8:57 PM592523.23-6.08ese9.56--
7:57 PM602018.82-2.61w9.56--
6:57 PM631717.51-5.21wnw19.12--
5:57 PM641718.32-8.69nw16.51--
4:57 PM661719.95-10.43nnw17.38--
3:57 PM722028.73-6.08wsw15.64--
2:57 PM722028.73-11.3sse16.51--
1:57 PM731826.99-11.3s19.12--
12:57 PM731928.3-12.17sse19.99--
11:57 AM731522.62-11.3s17.38--
10:57 AM731522.62-5.21sw11.3--
9:57 AM661719.95---4.34--
8:57 AM651820.47-3.48ese6.08--
7:57 AM592119.13-0.87ese9.56--
6:57 AM542418.04-6.08nne8.69--
5:57 AM542317.05-4.34ese6.08--
4:57 AM581814.75-3.48e7.82--
3:57 AM591714.26-2.61ene6.08--
2:57 AM601715.08-4.34e5.21--
1:57 AM601715.08-3.48e7.82--
12:57 AM591916.81-3.48ese5.21--
High: 74ºf @12:57 PM    Low: 60ºf @10:57 PM     Approx. Precipitation / Rain Total: in.
Time (PST)Temp. (ºf)Humidity (%)Dew Point (ºf)Barometer (inHG)Wind Speed (mph)Wind DirectionWind Gust (mph)1hr. Precip / Rain Total (in.)Snow Depth
11:57 PM601715.08-3.48nne6.95--
10:57 PM601715.08-5.21ese8.69--
9:57 PM641312.19-6.95nne10.43--
8:57 PM651211.17-6.08n9.56--
7:57 PM651211.17-6.08n7.82--
6:57 PM661211.95-3.48n6.95--
5:57 PM661211.95-3.48n12.17--
4:57 PM671212.73-4.34n9.56--
3:57 PM701113.09-5.21n17.38--
2:57 PM721114.63-6.95n15.64--
1:57 PM731013.23-8.69ne19.99--
12:57 PM741013.99-7.82nne19.99--
11:57 AM721012.47-11.3nne21.72--
10:57 AM721012.47-10.43nne29.55--
9:57 AM681111.55-15.64nne36.5--
8:57 AM681111.55-10.43nne24.33--
7:57 AM631311.4-4.34n14.77--
6:57 AM621310.61-7.82nne19.12--
5:57 AM611411.48-7.82nne20.86--
4:57 AM611411.48-6.08n21.72--
3:57 AM641210.39-11.3nne23.46--
2:57 AM641210.39-11.3nne25.2--
1:57 AM651211.17-13.03nne25.2--
12:57 AM661211.95-13.03nne33.02--
High: 72ºf @2:57 PM    Low: 64ºf @3:57 AM     Approx. Precipitation / Rain Total: in.
Time (PST)Temp. (ºf)Humidity (%)Dew Point (ºf)Barometer (inHG)Wind Speed (mph)Wind DirectionWind Gust (mph)1hr. Precip / Rain Total (in.)Snow Depth
11:57 PM661110-17.38nne30.41--
10:57 PM661211.95-17.38nne31.28--
9:57 PM661211.95-13.03ne26.94--
8:57 PM661313.76-14.77ne31.28--
7:57 PM661313.76-17.38ne30.41--
6:57 PM671314.55-12.17ne27.81--
5:57 PM681315.33-12.17nne26.94--
4:57 PM691316.12-14.77nne33.02--
3:57 PM711215.85-20.86nne37.37--
2:57 PM721216.62-19.99nne39.1--
1:57 PM721216.62-19.12ne34.76--
12:57 PM711419.41-21.72nne39.97--
11:57 AM711521.03-17.38nne40.84--
10:57 AM691620.94-21.72nne45.19--
9:57 AM671619.34-28.68nne46.92--
8:57 AM671822.1-26.94nne42.58--
7:57 AM652022.96-20.86nne34.76--
6:57 AM642123.29-19.99nne35.63--
5:57 AM642224.4-19.12nne33.02--
4:57 AM642325.46-17.38nne30.41--
3:57 AM642527.48-14.77nne26.94--
2:57 AM642628.43-13.9n25.2--
1:57 AM652528.32-12.17n23.46--
12:57 AM652528.32-10.43n25.2--
High: 77ºf @12:57 PM    Low: 48ºf @4:57 AM     Approx. Precipitation / Rain Total: in.
Time (PST)Temp. (ºf)Humidity (%)Dew Point (ºf)Barometer (inHG)Wind Speed (mph)Wind DirectionWind Gust (mph)1hr. Precip / Rain Total (in.)Snow Depth
11:57 PM672429.02-10.43nne25.2--
10:57 PM682328.82-12.17nne21.72--
9:57 PM662327.14-11.3nne20.86--
8:57 PM662327.14-8.69nne13.03--
7:57 PM672226.9-6.08nne12.17--
6:57 PM692127.44-9.56nne15.64--
5:57 PM692026.26-8.69n11.3--
4:57 PM711926.66-9.56nne19.99--
3:57 PM741726.42-12.17nne21.72--
2:57 PM751727.23-13.03nne22.59--
1:57 PM761626.56-15.64nne23.46--
12:57 PM771627.36-8.69n19.12--
11:57 AM752031.2-4.34n13.9--
10:57 AM702936.27-3.48sw6.08--
9:57 AM663336.07-3.48ssw6.08--
8:57 AM614036.5-1.74ssw5.21--
7:57 AM545035.78-2.61ene6.08--
6:57 AM515434.95-2.61nne6.08--
5:57 AM535034.86-1.74nne8.69--
4:57 AM485934.36-6.08ese9.56--
3:57 AM516238.44-2.61ne5.21--
2:57 AM496236.55-3.48ese6.95--
1:57 AM516138.03-2.61nne5.21--
12:57 AM516338.85-1.74e6.95--
High: 72ºf @12:57 PM    Low: 49ºf @6:57 AM     Approx. Precipitation / Rain Total: in.
Time (PST)Temp. (ºf)Humidity (%)Dew Point (ºf)Barometer (inHG)Wind Speed (mph)Wind DirectionWind Gust (mph)1hr. Precip / Rain Total (in.)Snow Depth
11:57 PM516640.05-0.87nnw6.08--
10:57 PM527042.52-2.61e5.21--
9:57 PM537043.48-1.74e5.21--
8:57 PM536340.75-2.61nnw7.82--
7:57 PM567247.1-3.48n6.08--
6:57 PM587349.39-3.48n4.34--
4:57 PM626047.95-6.08wsw8.69--
3:57 PM664845.74-5.21wsw14.77--
2:57 PM683740.75-13.03s17.38--
1:57 PM722837.1-10.43s17.38--
12:57 PM722736.18-13.03s17.38--
11:57 AM712836.25-5.21wsw7.82--
10:57 AM703238.78-0.87w3.48--
9:57 AM634138.93-2.61sw3.48--
8:57 AM594336.53-2.61sse4.34--
7:57 AM535235.85-0.87ene5.21--
6:57 AM496035.73-1.74ene2.61--
5:57 AM495935.3-0.87nnw4.34--
4:57 AM495834.87-2.61ese6.95--
3:57 AM506337.91-4.34n7.82--
2:57 AM505835.81-5.21ese6.95--
1:57 AM526741.39-5.21nne8.69--
12:57 AM525837.69-3.48ese6.08--
High: 75ºf @12:57 PM    Low: 52ºf @11:57 PM     Approx. Precipitation / Rain Total: in.
Time (PST)Temp. (ºf)Humidity (%)Dew Point (ºf)Barometer (inHG)Wind Speed (mph)Wind DirectionWind Gust (mph)1hr. Precip / Rain Total (in.)Snow Depth
11:57 PM527343.62-0.87sw2.61--
10:57 PM547245.18-1.74nw3.48--
9:57 PM556242.22-1.74e3.48--
8:57 PM578251.56-1.74wsw4.34--
7:57 PM587449.76-2.61nnw5.21--
5:57 PM645647.98-3.48wnw6.08--
4:57 PM684948.12-2.61wsw5.21--
3:57 PM733745.17-3.48wsw11.3--
2:57 PM742434.91-7.82sse14.77--
1:57 PM742232.73-9.56ssw16.51--
12:57 PM752334.68-12.17ssw16.51--
11:57 AM752132.41-3.48wsw6.95--
10:57 AM722534.25-2.61sw5.21--
9:57 AM682934.55-1.74ssw5.21--
8:57 AM633131.89-3.48se6.08--
7:57 AM573932.29-0.87ese3.48--
6:57 AM554232.33-1.74nne3.48--
5:57 AM534029.33-0.87se6.95--
4:57 AM534632.78---5.21--
3:57 AM524732.4-2.61e6.08--
2:57 AM525134.44-4.34ese5.21--
1:57 AM525536.34-0.87ene3.48--
12:57 AM547044.44-3.48n4.34--
High: 74ºf @1:57 PM    Low: 48ºf @6:57 AM     Approx. Precipitation / Rain Total: in.
Time (PST)Temp. (ºf)Humidity (%)Dew Point (ºf)Barometer (inHG)Wind Speed (mph)Wind DirectionWind Gust (mph)1hr. Precip / Rain Total (in.)Snow Depth
11:57 PM557547.22-1.74ene5.21--
10:57 PM537645.64-5.21ese6.08--
9:57 PM567648.54-1.74nne2.61--
8:57 PM567849.24-1.74sw4.34--
7:57 PM587148.65-2.61ene6.95--
6:57 PM597350.36-4.34n5.21--
5:57 PM607050.18-3.48w11.3--
4:57 PM636249.77-6.95wsw13.9--
3:57 PM703943.89-9.56ssw13.03--
2:57 PM743242.26-6.95s11.3--
1:57 PM743141.43-6.95ssw12.17--
12:57 PM723442.08-9.56s14.77--
11:57 AM713541.96-8.69s11.3--
10:57 AM683942.11-3.48ssw6.95--
9:57 AM615243.25-3.48sw5.21--
8:57 AM585943.75-0.87ssw3.48--
7:57 AM526641---6.95--
6:57 AM487339.76-6.08ese7.82--
5:57 AM487640.8-4.34ese6.08--
4:57 AM498344.06-1.74n3.48--
3:57 AM508144.4---2.61--
2:57 AM509047.18---2.61--
1:57 AM528948.86-0.87ene4.34--
12:57 AM529350.04---3.48--
High: 75ºf @12:57 PM    Low: 53ºf @11:57 PM     Approx. Precipitation / Rain Total: in.
Time (PST)Temp. (ºf)Humidity (%)Dew Point (ºf)Barometer (inHG)Wind Speed (mph)Wind DirectionWind Gust (mph)1hr. Precip / Rain Total (in.)Snow Depth
11:57 PM539150.44-4.34s7.82--
10:57 PM548649.91-2.61s4.34--
9:57 PM557848.27-1.74n3.48--
8:57 PM568250.58-1.74nw4.34--
7:57 PM577850.21-1.74nnw4.34--
6:57 PM587449.76-3.48n4.34--
4:57 PM645949.38-6.95s12.17--
3:57 PM684847.57-9.56s14.77--
2:57 PM733644.45-11.3s16.51--
1:57 PM753041.45-10.43s16.51--
12:57 PM752637.78-10.43s15.64--
11:57 AM742535.94-10.43s15.64--
10:57 AM722635.23-2.61wsw9.56--
9:57 AM702936.27-1.74wsw6.95--
8:57 AM613633.86-1.74e6.08--
7:57 AM563730.1-5.21ese8.69--
6:57 AM573831.65-5.21nne10.43--
5:57 AM544030.23-9.56ese11.3--
4:57 AM563830.76---6.95--
3:57 AM553930.5-5.21ese8.69--
2:57 AM583631.2-1.74nne7.82--
1:57 AM563830.76-6.95ese7.82--
12:57 AM583631.2-0.87se5.21--
High: 87ºf @1:57 PM    Low: 57ºf @11:57 PM     Approx. Precipitation / Rain Total: in.
Time (PST)Temp. (ºf)Humidity (%)Dew Point (ºf)Barometer (inHG)Wind Speed (mph)Wind DirectionWind Gust (mph)1hr. Precip / Rain Total (in.)Snow Depth
11:57 PM573831.65-3.48ese5.21--
10:57 PM593632.09-1.74ne4.34--
9:57 PM623534.03-2.61nne8.69--
8:57 PM643737.2-2.61ese4.34--
7:57 PM663033.67---4.34--
6:57 PM683237.03-2.61wnw6.95--
4:57 PM742535.94-4.34w7.82--
3:57 PM791933.21-4.34w13.9--
2:57 PM841123.84-9.56wsw14.77--
1:57 PM871228.24-9.56wsw15.64--
12:57 PM871330.2-6.08sw10.43--
11:57 AM831530.57-3.48w5.21--
10:57 AM791831.86-2.61sw4.34--
9:57 AM732130.75-0.87wnw2.61--
8:57 AM712230.24-1.74se3.48--
7:57 AM632526.63---2.61--
6:57 AM592825.95-1.74se4.34--
5:57 AM592825.95---8.69--
4:57 AM592825.95-0.87ne7.82--
3:57 AM612625.87-0.87ne8.69--
2:57 AM583026.75-6.08e8.69--
1:57 AM632526.63-2.61nne5.21--
12:57 AM642527.48-1.74e3.48--
High: 91ºf @1:57 PM    Low: 64ºf @11:57 PM     Approx. Precipitation / Rain Total: in.
Time (PST)Temp. (ºf)Humidity (%)Dew Point (ºf)Barometer (inHG)Wind Speed (mph)Wind DirectionWind Gust (mph)1hr. Precip / Rain Total (in.)Snow Depth
11:57 PM642628.43-2.61ese6.08--
10:57 PM652629.28-1.74nne5.21--
9:57 PM662529.17-3.48ese6.08--
8:57 PM702027.08-3.48n5.21--
7:57 PM722028.73-1.74n6.95--
6:57 PM742131.58-6.08ene7.82--
5:57 PM771931.57-2.61nw12.17--
4:57 PM801731.26-6.95w13.9--
3:57 PM871023.85-7.82nne14.77--
2:57 PM89922.84-6.08nw13.03--
1:57 PM911026.86-5.21w12.17--
12:57 PM901128.42-3.48wnw11.3--
11:57 AM901026.11-4.34se11.3--
10:57 AM841835.92-3.48wsw9.56--
9:57 AM792034.49-1.74wsw4.34--
8:57 AM752132.41-3.48n12.17--
7:57 AM692531.71-7.82nne14.77--
6:57 AM642931.11-4.34nne6.95--
5:57 AM643031.94-4.34ese6.95--
3:57 AM652730.21-2.61n6.95--
2:57 AM652831.1-3.48nne6.08--
1:57 AM662731.06-2.61nne6.95--
12:57 AM662731.06-3.48n7.82--
High: 88ºf @12:57 PM    Low: 67ºf @1:57 AM     Approx. Precipitation / Rain Total: in.
Time (PST)Temp. (ºf)Humidity (%)Dew Point (ºf)Barometer (inHG)Wind Speed (mph)Wind DirectionWind Gust (mph)1hr. Precip / Rain Total (in.)Snow Depth
11:57 PM672630.98-4.34nne7.82--
10:57 PM682732.77-4.34n6.08--
9:57 PM682833.67-6.95ese9.56--
8:57 PM722332.17-6.95nne8.69--
7:57 PM762032.02-6.08e7.82--
6:57 PM762032.02-6.08nne8.69--
5:57 PM771931.57-7.82nne11.3--
4:57 PM801629.77-7.82n14.77--
3:57 PM841327.86-9.56ne17.38--
2:57 PM861227.47-8.69ne19.12--
1:57 PM871228.24-7.82nne19.99--
12:57 PM881229.01-10.43ene19.99--
11:57 AM871330.2-9.56ne20.86--
10:57 AM841835.92-3.48nnw6.08--
9:57 AM802237.72-3.48sw5.21--
8:57 AM782236.06-0.87wsw4.34--
7:57 AM722433.23-0.87nne6.08--
6:57 AM712634.38-6.08nne8.69--
5:57 AM672933.69-4.34nne6.95--
4:57 AM702734.48-6.08nne8.69--
3:57 AM692834.53-5.21nne6.95--
2:57 AM692834.53-4.34nne6.95--
1:57 AM673236.16-0.87ssw8.69--
12:57 AM692935.41-6.95nne10.43--
High: 85ºf @2:57 PM    Low: 70ºf @2:57 AM     Approx. Precipitation / Rain Total: in.
Time (PST)Temp. (ºf)Humidity (%)Dew Point (ºf)Barometer (inHG)Wind Speed (mph)Wind DirectionWind Gust (mph)1hr. Precip / Rain Total (in.)Snow Depth
11:57 PM702936.27-6.08nne10.43--
10:57 PM702936.27-8.69n12.17--
8:57 PM742535.94-12.17nne18.25--
7:57 PM732636.08-8.69n13.03--
6:57 PM752536.78-8.69nne11.3--
5:57 PM772336.35-8.69n13.03--
4:57 PM792135.71-8.69n21.72--
3:57 PM831733.67-13.03nne24.33--
2:57 PM851633.76-13.03nne26.07--
1:57 PM841734.48-13.9nne29.55--
12:57 PM831835.11-15.64nne29.55--
11:57 AM821935.65-16.51nne32.15--
10:57 AM822036.95-13.9nne25.2--
9:57 AM812238.55-8.69nne26.94--
8:57 AM772437.43-12.17nne19.12--
5:57 AM703037.13-5.21n10.43--
4:57 AM722837.1-2.61nnw7.82--
3:57 AM703037.13-6.95n10.43--
2:57 AM702936.27-7.82n12.17--
1:57 AM703037.13-6.95n14.77--
12:57 AM712937.13-8.69n13.03--
High: 83ºf @2:57 PM    Low: 64ºf @5:57 AM     Approx. Precipitation / Rain Total: in.
Time (PST)Temp. (ºf)Humidity (%)Dew Point (ºf)Barometer (inHG)Wind Speed (mph)Wind DirectionWind Gust (mph)1hr. Precip / Rain Total (in.)Snow Depth
11:57 PM712937.13-11.3n16.51--
10:57 PM702936.27-6.08n8.69--
9:57 PM703037.13-5.21nnw9.56--
8:57 PM703037.13-6.08n10.43--
7:57 PM722937.99-7.82-10.43--
6:57 PM742737.89-6.08n11.3--
5:57 PM762436.59-6.95n13.9--
4:57 PM792236.89-9.56nne26.07--
2:57 PM831835.11-15.64nne26.07--
1:57 PM821935.65-16.51nne30.41--
12:57 PM821834.3-16.51nne26.94--
11:57 AM802136.54-15.64n31.28--
10:57 AM802237.72-13.9nne27.81--
9:57 AM772740.44-4.34n14.77--
8:57 AM733241.39-10.43nnw13.9--
7:57 AM683539.32-6.08n8.69--
6:57 AM663839.66-0.87wsw6.08--
5:57 AM644039.19-1.74ne8.69--
4:57 AM663738.98-5.21n9.56--
3:57 AM673639.16-4.34nne15.64--
2:57 AM663839.66-6.95e8.69--
1:57 AM663940.33-7.82ene13.9--
12:57 AM644240.44-8.69nne13.03--
High: 82ºf @1:57 PM    Low: 51ºf @4:57 AM     Approx. Precipitation / Rain Total: in.
Time (PST)Temp. (ºf)Humidity (%)Dew Point (ºf)Barometer (inHG)Wind Speed (mph)Wind DirectionWind Gust (mph)1hr. Precip / Rain Total (in.)Snow Depth
11:57 PM644240.44-5.21ese6.95--
10:57 PM644139.82-6.08nne8.69--
9:57 PM654140.72-2.61n7.82--
8:57 PM663839.66-0.87nnw12.17--
7:57 PM683640.04-8.69n16.51--
5:57 PM693036.27-6.08nw20.86--
4:57 PM692935.41-11.3nw24.33--
3:57 PM751929.94-17.38nnw23.46--
2:57 PM781831.05-12.17nnw20.86--
1:57 PM821935.65-3.48ne13.9--
12:57 PM812238.55-7.82n17.38--
11:57 AM802541-6.95n14.77--
10:57 AM762840.53-2.61n11.3--
9:57 AM713239.65-2.61sw6.95--
8:57 AM683640.04-2.61ene7.82--
7:57 AM604940.78-5.21sw9.56--
6:57 AM555940.94-4.34ne7.82--
5:57 AM547044.44-3.48ne13.03--
4:57 AM517944.72-6.95ese13.03--
3:57 AM567146.73-3.48nne10.43--
2:57 AM558149.28-7.82e10.43--
1:57 AM558048.94-4.34ene11.3--
12:57 AM5310053-3.48nne11.3--
High: 68ºf @11:57 AM    Low: 49ºf @6:57 AM     Approx. Precipitation / Rain Total: in.
Time (PST)Temp. (ºf)Humidity (%)Dew Point (ºf)Barometer (inHG)Wind Speed (mph)Wind DirectionWind Gust (mph)1hr. Precip / Rain Total (in.)Snow Depth
11:57 PM5310053-3.48ene8.69--
10:57 PM5310053-0.87nw4.34--
9:57 PM5310053-2.61nnw5.21--
7:57 PM569454.3-2.61nw4.34--
6:57 PM579154.4-1.74w4.34--
5:57 PM578853.48-2.61w8.69--
4:57 PM598353.84-5.21wnw10.43--
3:57 PM627353.24-7.82wnw13.9--
2:57 PM646250.71-10.43wnw14.77--
1:57 PM665951.25-8.69wsw13.9--
12:57 PM685350.22-7.82sw13.03--
11:57 AM685350.22-3.48s10.43--
10:57 AM646049.83-2.61wsw6.08--
9:57 AM607050.18-1.74nnw4.34--
8:57 AM577850.21-0.87nnw4.34--
7:57 AM539150.44-1.74s5.21--
6:57 AM499246.78-2.61ne7.82--
4:57 AM509147.48---6.08--
3:57 AM508946.89-4.34ese6.08--
2:57 AM519048.17-3.48nne6.08--
1:57 AM508746.28-6.95e8.69--
12:57 AM518747.27-0.87ne4.34--
High: 69ºf @2:57 PM    Low: 46ºf @5:57 AM     Approx. Precipitation / Rain Total: in.
Time (PST)Temp. (ºf)Humidity (%)Dew Point (ºf)Barometer (inHG)Wind Speed (mph)Wind DirectionWind Gust (mph)1hr. Precip / Rain Total (in.)Snow Depth
11:57 PM528948.86-4.34e5.21--
10:57 PM539050.15-0.87s2.61--
9:57 PM548248.63-1.74ne2.61--
8:57 PM549051.13---3.48--
7:57 PM558851.51-2.61nnw5.21--
6:57 PM558450.25-4.34wnw12.17--
5:57 PM597049.23-8.69wsw19.99--
4:57 PM634943.53-11.3ssw19.99--
3:57 PM664745.18-13.9ssw23.46--
2:57 PM694446.17-12.17ssw22.59--
1:57 PM684646.44-16.51ssw23.46--
12:57 PM684244.04-15.64ssw22.59--
11:57 AM674746.1-10.43ssw15.64--
10:57 AM664040.98-4.34wsw6.95--
9:57 AM634742.45-2.61ssw5.21--
8:57 AM565841.43---3.48--
7:57 AM536340.75-1.74ne3.48--
6:57 AM487339.76-3.48ssw5.21--
5:57 AM467638.87-3.48ese6.08--
4:57 AM497240.37-3.48ene7.82--
3:57 AM507040.61-5.21n9.56--
2:57 AM487339.76-6.95ese9.56--
1:57 AM526641-4.34ese8.69--
12:57 AM506839.86-4.34ese6.08--
High: 74ºf @12:57 PM    Low: 48ºf @5:57 AM     Approx. Precipitation / Rain Total: in.
Time (PST)Temp. (ºf)Humidity (%)Dew Point (ºf)Barometer (inHG)Wind Speed (mph)Wind DirectionWind Gust (mph)1hr. Precip / Rain Total (in.)Snow Depth
11:57 PM526440.2-4.34e6.08--
10:57 PM546241.28-5.21ese6.95--
9:57 PM556141.8-4.34se5.21--
8:57 PM565941.88-0.87ese4.34--
7:57 PM585541.92-2.61sw4.34--
6:57 PM595140.9-1.74sw7.82--
5:57 PM614941.7-6.08wnw17.38--
4:57 PM634641.89-6.95nnw15.64--
3:57 PM674142.52-8.69nw15.64--
2:57 PM733342.18-8.69ssw14.77--
1:57 PM733342.18-10.43s13.9--
12:57 PM743242.26-4.34sw9.56--
11:57 AM723240.52-4.34wsw11.3--
10:57 AM694144.31-3.48wsw7.82--
9:57 AM664342.86-1.74w5.21--
8:57 AM615243.25-1.74s7.82--
7:57 AM536340.75-8.69ese10.43--
6:57 AM506839.86-5.21ese8.69--
5:57 AM487239.41-6.95ese9.56--
4:57 AM536541.55-2.61nne8.69--
3:57 AM536842.72-5.21e7.82--
2:57 AM507542.39-6.08ese7.82--
1:57 AM537545.29-2.61nne7.82--
12:57 AM547445.9-2.61ese9.56--
High: 76ºf @1:57 PM    Low: 51ºf @5:57 AM     Approx. Precipitation / Rain Total: in.
Time (PST)Temp. (ºf)Humidity (%)Dew Point (ºf)Barometer (inHG)Wind Speed (mph)Wind DirectionWind Gust (mph)1hr. Precip / Rain Total (in.)Snow Depth
11:57 PM537545.29-0.87ene2.61--
10:57 PM557547.22-0.87ne5.21--
9:57 PM577248.06-0.87ne5.21--
8:57 PM597049.23-3.48nne4.34--
7:57 PM607050.18---3.48--
6:57 PM626349.26-2.61nnw6.08--
5:57 PM646049.83-3.48wnw7.82--
4:57 PM675550.29-6.95wsw11.3--
3:57 PM724549.48-6.08wnw13.9--
2:57 PM753746.94-10.43s16.51--
1:57 PM763243.99-12.17sse16.51--
12:57 PM753041.45-13.03sse18.25--
11:57 AM762840.53-10.43ssw16.51--
10:57 AM743141.43-2.61wsw5.21--
9:57 AM703641.81-0.87ssw6.08--
8:57 AM614539.5-1.74sw3.48--
7:57 AM595241.4---4.34--
6:57 AM555639.59-3.48ene6.08--
5:57 AM516238.44-6.08ese6.95--
4:57 AM545638.66-0.87n6.08--
3:57 AM535738.18-4.34e6.95--
2:57 AM565339.11-4.34nne6.95--
1:57 AM565238.62-6.08ese6.95--
12:57 AM595140.9-6.08nne7.82--
High: 86ºf @1:57 PM    Low: 55ºf @3:57 AM     Approx. Precipitation / Rain Total: in.
Time (PST)Temp. (ºf)Humidity (%)Dew Point (ºf)Barometer (inHG)Wind Speed (mph)Wind DirectionWind Gust (mph)1hr. Precip / Rain Total (in.)Snow Depth
11:57 PM594839.34-2.61e6.95--
10:57 PM614640.07-3.48se5.21--
9:57 PM625043.14-0.87n7.82--
8:57 PM625043.14-6.95ese7.82--
7:57 PM675047.74---5.21--
6:57 PM694848.48-1.74n5.21--
5:57 PM724348.27-2.61wsw8.69--
4:57 PM753646.22-4.34wsw8.69--
3:57 PM832543.52-5.21wsw14.77--
2:57 PM851328.64-9.56sse16.51--
1:57 PM861329.42-8.69sse13.9--
12:57 PM851735.28-3.48nw7.82--
11:57 AM821935.65-3.48w6.95--
10:57 AM772740.44-4.34wsw6.95--
9:57 AM733241.39-2.61ssw5.21--
8:57 AM683337.82-1.74s5.21--
7:57 AM624138.03-3.48ese4.34--
6:57 AM584436.21-3.48ese6.95--
5:57 AM564736.06-3.48ne6.08--
4:57 AM584536.78-5.21nne6.08--
3:57 AM555237.7-1.74ene7.82--
2:57 AM575139.05-2.61ne8.69--
1:57 AM575239.55-6.08e6.95--
12:57 AM604940.78-0.87ese6.08--
High: 83ºf @1:57 PM    Low: 58ºf @4:57 AM     Approx. Precipitation / Rain Total: in.
Time (PST)Temp. (ºf)Humidity (%)Dew Point (ºf)Barometer (inHG)Wind Speed (mph)Wind DirectionWind Gust (mph)1hr. Precip / Rain Total (in.)Snow Depth
10:57 PM625043.14-4.34ne7.82--
9:57 PM635446.09-5.21ese7.82--
8:57 PM655246.94-5.21ene8.69--
7:57 PM684042.77-2.61n15.64--
6:57 PM694446.17-8.69nw28.68--
5:57 PM723442.08-14.77nnw23.46--
4:57 PM762234.4-14.77nnw21.72--
3:57 PM812339.69-12.17nnw17.38--
2:57 PM832240.21-5.21nw16.51--
1:57 PM832240.21-9.56nw16.51--
12:57 PM832240.21-9.56nw15.64--
11:57 AM832543.52-3.48wsw8.69--
10:57 AM822643.71-1.74sw6.95--
9:57 AM782842.24-1.74se7.82--
8:57 AM703037.13-5.21ese8.69--
7:57 AM663738.98-2.61ese5.21--
6:57 AM594336.53-2.61nne6.08--
5:57 AM584436.21-0.87w6.08--
4:57 AM584637.34-5.21ese7.82--
2:57 AM604538.6-1.74ne7.82--
1:57 AM594537.69-6.95ese8.69--
12:57 AM624339.25-4.34nne8.69--
High: 84ºf @3:57 PM    Low: 57ºf @2:57 AM     Approx. Precipitation / Rain Total: in.
Time (PST)Temp. (ºf)Humidity (%)Dew Point (ºf)Barometer (inHG)Wind Speed (mph)Wind DirectionWind Gust (mph)1hr. Precip / Rain Total (in.)Snow Depth
11:57 PM625043.14-5.21ese8.69--
10:57 PM624942.62-2.61n6.08--
8:57 PM646150.28-2.61nne5.21--
7:57 PM665850.79-1.74n6.08--
6:57 PM685551.22-5.21nw7.82--
5:57 PM695552.15-6.08sw11.3--
4:57 PM754652.8-6.08wsw10.43--
3:57 PM842139.84-3.48nne11.3--
6:57 AM654643.71-6.08nne10.43--
5:57 AM615343.74-3.48n6.95--
4:57 AM605644.26-5.21n7.82--
2:57 AM576444.94-4.34ese6.95--
1:57 AM596948.84---4.34--
12:57 AM596748.06-2.61ese4.34--
High: 65ºf @5:57 PM    Low: 60ºf @9:57 PM     Approx. Precipitation / Rain Total: in.
Time (PST)Temp. (ºf)Humidity (%)Dew Point (ºf)Barometer (inHG)Wind Speed (mph)Wind DirectionWind Gust (mph)1hr. Precip / Rain Total (in.)Snow Depth
10:57 PM607050.18-2.61ene6.08--
9:57 PM607150.57-2.61nne6.95--
8:57 PM617251.9-2.61e5.21--
7:57 PM626951.71-4.34nne5.21--
6:57 PM636952.66-1.74wnw7.82--
5:57 PM656552.94-6.08s10.43--
Past Weather Disclaimer Note regarding "Approx. Precipitation / Rain Total"

Currently

Clear 54°F
30.10in
Barometer
58%
Humidity
North 0.0mph
Wind
Clear

Past Weather Nearby

More Local Information

Bookmark and Share

Go Ad Free - Become a Member